Alameda, California
Current Conditions -  °F | °C
As of 3:53 PM on Saturday 25 Oct 2014 (Local Time) from KOAK Reporting Station
Scattered Clouds Scattered Clouds  
Wind Chill: 21°   Ceiling: Unl
Heat Index: 21°   Visibility: 10mi
Dew Point: 13°   Wind: 15mph
Humidity: 63%   Direction: 230°SW
Pressure: 30.07"   Gusts: NA
Location:  37.77°N, 122.24°W
Report Text: KOAK 252253Z 23013KT 10SM FEW040 SCT060 21/13 A3007 RMK AO2 SLP180 T02060133
Loading
Personal Weather Stations






























Interactive Weather Map
Tropical Storm Tracking
New forecast layout! Learn more

10-Day Weather Forecast

Advertisements
Track Severe Weather on mobile